sensor_id;sensor_type;location;lat;lon;timestamp;P1;durP1;ratioP1;P2;durP2;ratioP2
57697;SDS011;43531;52.152;6.366;2023-01-19T00:00:17;15.73;;;12.13;;
57697;SDS011;43531;52.152;6.366;2023-01-19T00:00:50;13.93;;;12.07;;
57697;SDS011;43531;52.152;6.366;2023-01-19T00:01:22;16.65;;;12.82;;
57697;SDS011;43531;52.152;6.366;2023-01-19T00:01:54;19.23;;;12.18;;
57697;SDS011;43531;52.152;6.366;2023-01-19T00:02:26;17.17;;;11.77;;
57697;SDS011;43531;52.152;6.366;2023-01-19T00:02:57;18.55;;;12.75;;
57697;SDS011;43531;52.152;6.366;2023-01-19T00:03:29;16.70;;;12.57;;
57697;SDS011;43531;52.152;6.366;2023-01-19T00:04:01;14.95;;;12.85;;
57697;SDS011;43531;52.152;6.366;2023-01-19T00:04:32;15.18;;;12.23;;
57697;SDS011;43531;52.152;6.366;2023-01-19T00:05:04;14.05;;;12.55;;
57697;SDS011;43531;52.152;6.366;2023-01-19T00:05:36;16.90;;;13.63;;
57697;SDS011;43531;52.152;6.366;2023-01-19T00:06:08;15.07;;;12.00;;
57697;SDS011;43531;52.152;6.366;2023-01-19T00:06:40;19.08;;;13.57;;
57697;SDS011;43531;52.152;6.366;2023-01-19T00:07:12;15.65;;;12.40;;
57697;SDS011;43531;52.152;6.366;2023-01-19T00:07:43;19.85;;;13.25;;
57697;SDS011;43531;52.152;6.366;2023-01-19T00:08:16;14.18;;;11.75;;
57697;SDS011;43531;52.152;6.366;2023-01-19T00:08:48;17.83;;;13.27;;
57697;SDS011;43531;52.152;6.366;2023-01-19T00:09:22;16.33;;;12.73;;
57697;SDS011;43531;52.152;6.366;2023-01-19T00:09:54;15.75;;;12.73;;
57697;SDS011;43531;52.152;6.366;2023-01-19T00:10:25;19.38;;;15.18;;
57697;SDS011;43531;52.152;6.366;2023-01-19T00:10:57;20.25;;;12.55;;
57697;SDS011;43531;52.152;6.366;2023-01-19T00:11:28;19.17;;;15.20;;
57697;SDS011;43531;52.152;6.366;2023-01-19T00:12:00;18.85;;;14.80;;
57697;SDS011;43531;52.152;6.366;2023-01-19T00:12:32;19.40;;;14.20;;
57697;SDS011;43531;52.152;6.366;2023-01-19T00:13:03;24.95;;;15.75;;
57697;SDS011;43531;52.152;6.366;2023-01-19T00:13:35;22.55;;;15.82;;
57697;SDS011;43531;52.152;6.366;2023-01-19T00:14:07;18.73;;;15.75;;
57697;SDS011;43531;52.152;6.366;2023-01-19T00:14:38;22.23;;;15.65;;
57697;SDS011;43531;52.152;6.366;2023-01-19T00:15:10;22.17;;;16.52;;
57697;SDS011;43531;52.152;6.366;2023-01-19T00:15:42;18.38;;;16.42;;
57697;SDS011;43531;52.152;6.366;2023-01-19T00:16:14;20.23;;;18.02;;
57697;SDS011;43531;52.152;6.366;2023-01-19T00:16:49;20.77;;;16.60;;
57697;SDS011;43531;52.152;6.366;2023-01-19T00:17:21;21.83;;;16.25;;
57697;SDS011;43531;52.152;6.366;2023-01-19T00:17:53;20.42;;;16.42;;
57697;SDS011;43531;52.152;6.366;2023-01-19T00:18:24;17.63;;;15.70;;
57697;SDS011;43531;52.152;6.366;2023-01-19T00:18:56;25.05;;;17.55;;
57697;SDS011;43531;52.152;6.366;2023-01-19T00:19:27;21.70;;;16.92;;
57697;SDS011;43531;52.152;6.366;2023-01-19T00:19:59;21.73;;;18.30;;
57697;SDS011;43531;52.152;6.366;2023-01-19T00:20:31;23.58;;;16.98;;
57697;SDS011;43531;52.152;6.366;2023-01-19T00:21:03;17.27;;;15.35;;
57697;SDS011;43531;52.152;6.366;2023-01-19T00:21:34;22.10;;;16.33;;
57697;SDS011;43531;52.152;6.366;2023-01-19T00:22:06;24.05;;;16.67;;
57697;SDS011;43531;52.152;6.366;2023-01-19T00:22:38;25.35;;;17.40;;
57697;SDS011;43531;52.152;6.366;2023-01-19T00:23:09;22.10;;;18.02;;
57697;SDS011;43531;52.152;6.366;2023-01-19T00:23:41;19.13;;;16.58;;
57697;SDS011;43531;52.152;6.366;2023-01-19T00:24:14;19.33;;;16.75;;
57697;SDS011;43531;52.152;6.366;2023-01-19T00:24:45;24.33;;;17.23;;
57697;SDS011;43531;52.152;6.366;2023-01-19T00:25:17;21.63;;;17.67;;
57697;SDS011;43531;52.152;6.366;2023-01-19T00:25:49;18.30;;;16.38;;
57697;SDS011;43531;52.152;6.366;2023-01-19T00:26:21;19.33;;;16.90;;
57697;SDS011;43531;52.152;6.366;2023-01-19T00:26:53;22.08;;;18.08;;
57697;SDS011;43531;52.152;6.366;2023-01-19T00:27:24;21.35;;;17.85;;
57697;SDS011;43531;52.152;6.366;2023-01-19T00:27:56;23.63;;;17.67;;
57697;SDS011;43531;52.152;6.366;2023-01-19T00:28:30;21.58;;;17.50;;
57697;SDS011;43531;52.152;6.366;2023-01-19T00:29:02;21.20;;;18.20;;
57697;SDS011;43531;52.152;6.366;2023-01-19T00:29:35;20.30;;;16.60;;
57697;SDS011;43531;52.152;6.366;2023-01-19T00:30:06;20.80;;;16.92;;
57697;SDS011;43531;52.152;6.366;2023-01-19T00:30:39;20.65;;;17.55;;
57697;SDS011;43531;52.152;6.366;2023-01-19T00:31:11;22.83;;;18.88;;
57697;SDS011;43531;52.152;6.366;2023-01-19T00:31:43;21.20;;;17.80;;
57697;SDS011;43531;52.152;6.366;2023-01-19T00:32:15;29.23;;;19.90;;
57697;SDS011;43531;52.152;6.366;2023-01-19T00:32:48;21.17;;;17.58;;
57697;SDS011;43531;52.152;6.366;2023-01-19T00:33:20;21.08;;;16.60;;
57697;SDS011;43531;52.152;6.366;2023-01-19T00:33:51;18.70;;;16.58;;
57697;SDS011;43531;52.152;6.366;2023-01-19T00:34:23;27.05;;;18.13;;
57697;SDS011;43531;52.152;6.366;2023-01-19T00:34:55;29.23;;;18.15;;
57697;SDS011;43531;52.152;6.366;2023-01-19T00:35:27;23.08;;;17.30;;
57697;SDS011;43531;52.152;6.366;2023-01-19T00:35:58;19.52;;;16.95;;
57697;SDS011;43531;52.152;6.366;2023-01-19T00:36:30;20.60;;;17.65;;
57697;SDS011;43531;52.152;6.366;2023-01-19T00:37:02;19.83;;;16.95;;
57697;SDS011;43531;52.152;6.366;2023-01-19T00:37:34;19.58;;;17.45;;
57697;SDS011;43531;52.152;6.366;2023-01-19T00:38:06;23.70;;;19.30;;
57697;SDS011;43531;52.152;6.366;2023-01-19T00:38:37;23.52;;;18.85;;
57697;SDS011;43531;52.152;6.366;2023-01-19T00:39:09;23.30;;;18.38;;
57697;SDS011;43531;52.152;6.366;2023-01-19T00:39:41;21.58;;;18.35;;
57697;SDS011;43531;52.152;6.366;2023-01-19T00:40:13;20.83;;;16.20;;
57697;SDS011;43531;52.152;6.366;2023-01-19T00:40:46;25.60;;;18.02;;
57697;SDS011;43531;52.152;6.366;2023-01-19T00:41:18;25.35;;;19.13;;
57697;SDS011;43531;52.152;6.366;2023-01-19T00:42:10;20.73;;;16.65;;
57697;SDS011;43531;52.152;6.366;2023-01-19T00:43:01;18.40;;;15.65;;
57697;SDS011;43531;52.152;6.366;2023-01-19T00:43:34;19.45;;;16.58;;
57697;SDS011;43531;52.152;6.366;2023-01-19T00:44:05;25.05;;;16.85;;
57697;SDS011;43531;52.152;6.366;2023-01-19T00:44:37;22.33;;;16.98;;
57697;SDS011;43531;52.152;6.366;2023-01-19T00:45:10;20.92;;;17.30;;
57697;SDS011;43531;52.152;6.366;2023-01-19T00:45:44;23.00;;;17.27;;
57697;SDS011;43531;52.152;6.366;2023-01-19T00:46:15;20.63;;;18.00;;
57697;SDS011;43531;52.152;6.366;2023-01-19T00:46:47;28.13;;;17.80;;
57697;SDS011;43531;52.152;6.366;2023-01-19T00:47:19;20.63;;;17.25;;
57697;SDS011;43531;52.152;6.366;2023-01-19T00:47:50;22.40;;;17.92;;
57697;SDS011;43531;52.152;6.366;2023-01-19T00:48:27;22.25;;;16.85;;
57697;SDS011;43531;52.152;6.366;2023-01-19T00:48:59;24.35;;;18.98;;
57697;SDS011;43531;52.152;6.366;2023-01-19T00:49:31;23.48;;;18.50;;
57697;SDS011;43531;52.152;6.366;2023-01-19T00:50:03;22.45;;;18.13;;
57697;SDS011;43531;52.152;6.366;2023-01-19T00:50:35;20.77;;;18.42;;
57697;SDS011;43531;52.152;6.366;2023-01-19T00:51:06;28.30;;;18.20;;
57697;SDS011;43531;52.152;6.366;2023-01-19T00:51:38;21.02;;;17.17;;
57697;SDS011;43531;52.152;6.366;2023-01-19T00:52:09;21.75;;;18.35;;
57697;SDS011;43531;52.152;6.366;2023-01-19T00:52:42;19.73;;;17.05;;
57697;SDS011;43531;52.152;6.366;2023-01-19T00:53:14;20.35;;;17.60;;
57697;SDS011;43531;52.152;6.366;2023-01-19T00:53:46;18.50;;;16.58;;
57697;SDS011;43531;52.152;6.366;2023-01-19T00:54:17;23.65;;;18.13;;
57697;SDS011;43531;52.152;6.366;2023-01-19T00:54:49;26.13;;;18.35;;
57697;SDS011;43531;52.152;6.366;2023-01-19T00:55:21;20.88;;;17.48;;
57697;SDS011;43531;52.152;6.366;2023-01-19T00:55:53;20.95;;;18.38;;
57697;SDS011;43531;52.152;6.366;2023-01-19T00:56:25;23.27;;;17.90;;
57697;SDS011;43531;52.152;6.366;2023-01-19T00:56:57;22.48;;;18.92;;
57697;SDS011;43531;52.152;6.366;2023-01-19T00:57:28;21.90;;;17.83;;
57697;SDS011;43531;52.152;6.366;2023-01-19T00:58:00;20.00;;;17.90;;
57697;SDS011;43531;52.152;6.366;2023-01-19T00:58:34;24.13;;;17.45;;
57697;SDS011;43531;52.152;6.366;2023-01-19T00:59:06;23.55;;;19.95;;
57697;SDS011;43531;52.152;6.366;2023-01-19T00:59:37;20.52;;;18.25;;
57697;SDS011;43531;52.152;6.366;2023-01-19T01:00:13;22.40;;;18.45;;
57697;SDS011;43531;52.152;6.366;2023-01-19T01:00:46;23.10;;;18.50;;
57697;SDS011;43531;52.152;6.366;2023-01-19T01:01:18;22.27;;;18.13;;
57697;SDS011;43531;52.152;6.366;2023-01-19T01:01:49;20.60;;;17.30;;
57697;SDS011;43531;52.152;6.366;2023-01-19T01:02:21;23.27;;;18.65;;
57697;SDS011;43531;52.152;6.366;2023-01-19T01:02:53;21.60;;;17.85;;
57697;SDS011;43531;52.152;6.366;2023-01-19T01:03:25;23.23;;;19.77;;
57697;SDS011;43531;52.152;6.366;2023-01-19T01:03:58;26.98;;;18.17;;
57697;SDS011;43531;52.152;6.366;2023-01-19T01:04:33;27.45;;;19.73;;
57697;SDS011;43531;52.152;6.366;2023-01-19T01:05:04;25.45;;;20.02;;
57697;SDS011;43531;52.152;6.366;2023-01-19T01:05:39;25.52;;;20.13;;
57697;SDS011;43531;52.152;6.366;2023-01-19T01:06:11;24.00;;;19.10;;
57697;SDS011;43531;52.152;6.366;2023-01-19T01:06:42;24.25;;;19.77;;
57697;SDS011;43531;52.152;6.366;2023-01-19T01:07:14;24.52;;;20.42;;
57697;SDS011;43531;52.152;6.366;2023-01-19T01:07:46;25.92;;;20.50;;
57697;SDS011;43531;52.152;6.366;2023-01-19T01:08:19;22.92;;;20.02;;
57697;SDS011;43531;52.152;6.366;2023-01-19T01:08:51;28.35;;;20.02;;
57697;SDS011;43531;52.152;6.366;2023-01-19T01:09:23;22.00;;;18.88;;
57697;SDS011;43531;52.152;6.366;2023-01-19T01:09:55;24.90;;;20.15;;
57697;SDS011;43531;52.152;6.366;2023-01-19T01:10:27;23.33;;;19.83;;
57697;SDS011;43531;52.152;6.366;2023-01-19T01:10:59;25.13;;;21.27;;
57697;SDS011;43531;52.152;6.366;2023-01-19T01:11:31;25.20;;;19.05;;
57697;SDS011;43531;52.152;6.366;2023-01-19T01:12:03;25.27;;;19.40;;
57697;SDS011;43531;52.152;6.366;2023-01-19T01:12:36;25.63;;;20.38;;
57697;SDS011;43531;52.152;6.366;2023-01-19T01:13:08;21.00;;;18.77;;
57697;SDS011;43531;52.152;6.366;2023-01-19T01:13:51;24.00;;;21.35;;
57697;SDS011;43531;52.152;6.366;2023-01-19T01:14:23;24.45;;;18.98;;
57697;SDS011;43531;52.152;6.366;2023-01-19T01:14:55;21.45;;;19.10;;
57697;SDS011;43531;52.152;6.366;2023-01-19T01:15:27;23.35;;;18.92;;
57697;SDS011;43531;52.152;6.366;2023-01-19T01:15:59;24.00;;;20.17;;
57697;SDS011;43531;52.152;6.366;2023-01-19T01:16:31;26.85;;;19.05;;
57697;SDS011;43531;52.152;6.366;2023-01-19T01:17:03;29.08;;;20.98;;
57697;SDS011;43531;52.152;6.366;2023-01-19T01:17:34;25.30;;;20.20;;
57697;SDS011;43531;52.152;6.366;2023-01-19T01:18:06;25.17;;;21.20;;
57697;SDS011;43531;52.152;6.366;2023-01-19T01:18:37;26.13;;;20.35;;
57697;SDS011;43531;52.152;6.366;2023-01-19T01:19:09;27.60;;;20.70;;
57697;SDS011;43531;52.152;6.366;2023-01-19T01:19:41;30.77;;;21.13;;
57697;SDS011;43531;52.152;6.366;2023-01-19T01:20:17;21.45;;;19.15;;
57697;SDS011;43531;52.152;6.366;2023-01-19T01:20:59;23.38;;;19.30;;
57697;SDS011;43531;52.152;6.366;2023-01-19T01:21:35;24.33;;;19.88;;
57697;SDS011;43531;52.152;6.366;2023-01-19T01:22:08;21.38;;;18.50;;
57697;SDS011;43531;52.152;6.366;2023-01-19T01:22:40;21.00;;;18.23;;
57697;SDS011;43531;52.152;6.366;2023-01-19T01:23:15;28.27;;;19.40;;
57697;SDS011;43531;52.152;6.366;2023-01-19T01:23:47;25.92;;;19.17;;
57697;SDS011;43531;52.152;6.366;2023-01-19T01:24:18;21.15;;;18.85;;
57697;SDS011;43531;52.152;6.366;2023-01-19T01:24:50;23.25;;;19.63;;
57697;SDS011;43531;52.152;6.366;2023-01-19T01:25:25;23.45;;;19.30;;
57697;SDS011;43531;52.152;6.366;2023-01-19T01:25:58;22.88;;;20.00;;
57697;SDS011;43531;52.152;6.366;2023-01-19T01:26:29;22.75;;;19.67;;
57697;SDS011;43531;52.152;6.366;2023-01-19T01:27:01;25.50;;;19.35;;
57697;SDS011;43531;52.152;6.366;2023-01-19T01:27:33;22.70;;;20.00;;
57697;SDS011;43531;52.152;6.366;2023-01-19T01:28:05;24.80;;;18.50;;
57697;SDS011;43531;52.152;6.366;2023-01-19T01:28:38;26.25;;;18.55;;
57697;SDS011;43531;52.152;6.366;2023-01-19T01:29:10;24.92;;;19.98;;
57697;SDS011;43531;52.152;6.366;2023-01-19T01:29:42;26.08;;;19.65;;
57697;SDS011;43531;52.152;6.366;2023-01-19T01:30:17;26.30;;;19.35;;
57697;SDS011;43531;52.152;6.366;2023-01-19T01:30:52;27.67;;;20.42;;
57697;SDS011;43531;52.152;6.366;2023-01-19T01:31:25;24.20;;;20.60;;
57697;SDS011;43531;52.152;6.366;2023-01-19T01:31:57;25.45;;;19.05;;
57697;SDS011;43531;52.152;6.366;2023-01-19T01:32:29;25.13;;;18.67;;
57697;SDS011;43531;52.152;6.366;2023-01-19T01:33:00;22.23;;;19.85;;
57697;SDS011;43531;52.152;6.366;2023-01-19T01:33:33;23.52;;;19.38;;
57697;SDS011;43531;52.152;6.366;2023-01-19T01:34:12;21.38;;;18.30;;
57697;SDS011;43531;52.152;6.366;2023-01-19T01:34:43;29.10;;;20.27;;
57697;SDS011;43531;52.152;6.366;2023-01-19T01:35:15;22.55;;;18.55;;
57697;SDS011;43531;52.152;6.366;2023-01-19T01:35:49;23.90;;;20.15;;
57697;SDS011;43531;52.152;6.366;2023-01-19T01:36:22;22.08;;;18.92;;
57697;SDS011;43531;52.152;6.366;2023-01-19T01:36:54;25.13;;;18.85;;
57697;SDS011;43531;52.152;6.366;2023-01-19T01:37:26;26.73;;;20.10;;
57697;SDS011;43531;52.152;6.366;2023-01-19T01:37:59;28.55;;;19.73;;
57697;SDS011;43531;52.152;6.366;2023-01-19T01:38:31;21.38;;;19.02;;
57697;SDS011;43531;52.152;6.366;2023-01-19T01:39:03;25.02;;;20.52;;
57697;SDS011;43531;52.152;6.366;2023-01-19T01:39:35;27.17;;;20.65;;
57697;SDS011;43531;52.152;6.366;2023-01-19T01:40:08;30.75;;;21.67;;
57697;SDS011;43531;52.152;6.366;2023-01-19T01:40:42;26.02;;;19.75;;
57697;SDS011;43531;52.152;6.366;2023-01-19T01:41:16;26.08;;;19.58;;
57697;SDS011;43531;52.152;6.366;2023-01-19T01:41:48;23.80;;;19.50;;
57697;SDS011;43531;52.152;6.366;2023-01-19T01:42:24;25.48;;;20.83;;
57697;SDS011;43531;52.152;6.366;2023-01-19T01:42:58;21.88;;;18.83;;
57697;SDS011;43531;52.152;6.366;2023-01-19T01:43:43;23.70;;;19.98;;
57697;SDS011;43531;52.152;6.366;2023-01-19T01:45:36;22.05;;;18.63;;
57697;SDS011;43531;52.152;6.366;2023-01-19T01:46:11;26.83;;;17.17;;
57697;SDS011;43531;52.152;6.366;2023-01-19T01:46:45;25.73;;;19.00;;
57697;SDS011;43531;52.152;6.366;2023-01-19T01:47:22;22.50;;;18.20;;
57697;SDS011;43531;52.152;6.366;2023-01-19T01:49:11;27.83;;;20.05;;
57697;SDS011;43531;52.152;6.366;2023-01-19T01:49:38;27.10;;;18.77;;
57697;SDS011;43531;52.152;6.366;2023-01-19T01:50:14;26.08;;;18.98;;
57697;SDS011;43531;52.152;6.366;2023-01-19T01:50:58;28.08;;;20.45;;
57697;SDS011;43531;52.152;6.366;2023-01-19T01:51:50;25.15;;;18.77;;
57697;SDS011;43531;52.152;6.366;2023-01-19T01:52:23;24.50;;;19.45;;
57697;SDS011;43531;52.152;6.366;2023-01-19T01:52:58;22.35;;;18.33;;
57697;SDS011;43531;52.152;6.366;2023-01-19T01:53:38;25.13;;;19.35;;
57697;SDS011;43531;52.152;6.366;2023-01-19T01:54:55;23.63;;;20.23;;
57697;SDS011;43531;52.152;6.366;2023-01-19T01:55:28;26.08;;;19.88;;
57697;SDS011;43531;52.152;6.366;2023-01-19T01:56:02;26.75;;;20.95;;
57697;SDS011;43531;52.152;6.366;2023-01-19T01:56:40;31.20;;;21.42;;
57697;SDS011;43531;52.152;6.366;2023-01-19T01:57:13;27.17;;;20.45;;
57697;SDS011;43531;52.152;6.366;2023-01-19T01:57:47;26.05;;;20.27;;
57697;SDS011;43531;52.152;6.366;2023-01-19T01:58:22;26.60;;;20.80;;
57697;SDS011;43531;52.152;6.366;2023-01-19T01:58:53;26.77;;;21.20;;
57697;SDS011;43531;52.152;6.366;2023-01-19T01:59:26;24.08;;;20.67;;
57697;SDS011;43531;52.152;6.366;2023-01-19T02:00:05;26.95;;;21.35;;
57697;SDS011;43531;52.152;6.366;2023-01-19T02:00:37;25.95;;;21.10;;
57697;SDS011;43531;52.152;6.366;2023-01-19T02:01:28;22.13;;;17.67;;
57697;SDS011;43531;52.152;6.366;2023-01-19T02:02:23;24.73;;;17.75;;
57697;SDS011;43531;52.152;6.366;2023-01-19T02:03:15;26.63;;;18.48;;
57697;SDS011;43531;52.152;6.366;2023-01-19T02:03:47;27.05;;;18.40;;
57697;SDS011;43531;52.152;6.366;2023-01-19T02:04:18;24.58;;;20.70;;
57697;SDS011;43531;52.152;6.366;2023-01-19T02:04:53;24.48;;;19.85;;
57697;SDS011;43531;52.152;6.366;2023-01-19T02:05:28;21.40;;;17.33;;
57697;SDS011;43531;52.152;6.366;2023-01-19T02:06:03;24.88;;;19.55;;
57697;SDS011;43531;52.152;6.366;2023-01-19T02:06:37;25.80;;;19.08;;
57697;SDS011;43531;52.152;6.366;2023-01-19T02:07:36;23.67;;;18.92;;
57697;SDS011;43531;52.152;6.366;2023-01-19T02:08:45;29.25;;;19.10;;
57697;SDS011;43531;52.152;6.366;2023-01-19T02:09:39;21.52;;;17.02;;
57697;SDS011;43531;52.152;6.366;2023-01-19T02:10:30;20.48;;;16.45;;
57697;SDS011;43531;52.152;6.366;2023-01-19T02:11:20;19.90;;;14.27;;
57697;SDS011;43531;52.152;6.366;2023-01-19T02:12:11;22.02;;;14.52;;
57697;SDS011;43531;52.152;6.366;2023-01-19T02:13:02;21.48;;;14.57;;
57697;SDS011;43531;52.152;6.366;2023-01-19T02:13:52;24.23;;;14.77;;
57697;SDS011;43531;52.152;6.366;2023-01-19T02:14:23;24.10;;;15.45;;
57697;SDS011;43531;52.152;6.366;2023-01-19T02:14:55;17.63;;;15.30;;
57697;SDS011;43531;52.152;6.366;2023-01-19T02:15:26;20.85;;;15.38;;
57697;SDS011;43531;52.152;6.366;2023-01-19T02:15:59;16.75;;;14.25;;
57697;SDS011;43531;52.152;6.366;2023-01-19T02:16:34;18.80;;;15.13;;
57697;SDS011;43531;52.152;6.366;2023-01-19T02:17:06;20.48;;;15.18;;
57697;SDS011;43531;52.152;6.366;2023-01-19T02:17:38;20.00;;;15.02;;
57697;SDS011;43531;52.152;6.366;2023-01-19T02:18:10;21.45;;;16.00;;
57697;SDS011;43531;52.152;6.366;2023-01-19T02:18:41;22.00;;;14.45;;
57697;SDS011;43531;52.152;6.366;2023-01-19T02:19:17;21.88;;;14.65;;
57697;SDS011;43531;52.152;6.366;2023-01-19T02:19:54;22.95;;;16.02;;
57697;SDS011;43531;52.152;6.366;2023-01-19T02:20:26;26.50;;;15.35;;
57697;SDS011;43531;52.152;6.366;2023-01-19T02:22:04;20.45;;;12.85;;
57697;SDS011;43531;52.152;6.366;2023-01-19T02:22:47;18.02;;;14.23;;
57697;SDS011;43531;52.152;6.366;2023-01-19T02:23:26;19.30;;;13.68;;
57697;SDS011;43531;52.152;6.366;2023-01-19T02:24:02;20.15;;;13.80;;
57697;SDS011;43531;52.152;6.366;2023-01-19T02:24:33;18.10;;;14.18;;
57697;SDS011;43531;52.152;6.366;2023-01-19T02:25:06;17.15;;;13.85;;
57697;SDS011;43531;52.152;6.366;2023-01-19T02:25:38;21.83;;;15.15;;
57697;SDS011;43531;52.152;6.366;2023-01-19T02:26:14;16.05;;;12.90;;
57697;SDS011;43531;52.152;6.366;2023-01-19T02:26:48;20.75;;;15.90;;
57697;SDS011;43531;52.152;6.366;2023-01-19T02:27:20;20.50;;;14.40;;
57697;SDS011;43531;52.152;6.366;2023-01-19T02:27:52;23.20;;;14.43;;
57697;SDS011;43531;52.152;6.366;2023-01-19T02:28:24;19.85;;;14.10;;
57697;SDS011;43531;52.152;6.366;2023-01-19T02:28:58;22.02;;;15.30;;
57697;SDS011;43531;52.152;6.366;2023-01-19T02:29:31;21.20;;;14.98;;
57697;SDS011;43531;52.152;6.366;2023-01-19T02:30:03;20.13;;;15.15;;
57697;SDS011;43531;52.152;6.366;2023-01-19T02:30:35;19.55;;;16.15;;
57697;SDS011;43531;52.152;6.366;2023-01-19T02:31:09;24.63;;;15.02;;
57697;SDS011;43531;52.152;6.366;2023-01-19T02:31:40;18.25;;;14.20;;
57697;SDS011;43531;52.152;6.366;2023-01-19T02:32:12;20.73;;;14.70;;
57697;SDS011;43531;52.152;6.366;2023-01-19T02:32:44;22.77;;;16.75;;
57697;SDS011;43531;52.152;6.366;2023-01-19T02:33:16;20.20;;;15.77;;
57697;SDS011;43531;52.152;6.366;2023-01-19T02:33:47;19.75;;;15.90;;
57697;SDS011;43531;52.152;6.366;2023-01-19T02:34:19;19.00;;;13.93;;
57697;SDS011;43531;52.152;6.366;2023-01-19T02:34:52;19.80;;;15.23;;
57697;SDS011;43531;52.152;6.366;2023-01-19T02:35:25;24.10;;;15.20;;
57697;SDS011;43531;52.152;6.366;2023-01-19T02:35:56;19.38;;;14.93;;
57697;SDS011;43531;52.152;6.366;2023-01-19T02:37:27;18.25;;;13.38;;
57697;SDS011;43531;52.152;6.366;2023-01-19T02:38:00;17.33;;;15.05;;
57697;SDS011;43531;52.152;6.366;2023-01-19T02:38:32;20.00;;;14.60;;
57697;SDS011;43531;52.152;6.366;2023-01-19T02:39:05;17.85;;;14.25;;
57697;SDS011;43531;52.152;6.366;2023-01-19T02:39:41;19.23;;;15.23;;
57697;SDS011;43531;52.152;6.366;2023-01-19T02:40:16;17.33;;;14.18;;
57697;SDS011;43531;52.152;6.366;2023-01-19T02:40:50;24.40;;;14.02;;
57697;SDS011;43531;52.152;6.366;2023-01-19T02:41:23;23.80;;;14.40;;
57697;SDS011;43531;52.152;6.366;2023-01-19T02:41:59;17.25;;;14.07;;
57697;SDS011;43531;52.152;6.366;2023-01-19T02:42:38;19.60;;;14.32;;
57697;SDS011;43531;52.152;6.366;2023-01-19T02:43:14;19.23;;;14.50;;
57697;SDS011;43531;52.152;6.366;2023-01-19T02:43:47;18.55;;;14.52;;
57697;SDS011;43531;52.152;6.366;2023-01-19T02:44:20;20.25;;;13.77;;
57697;SDS011;43531;52.152;6.366;2023-01-19T02:44:54;26.85;;;14.32;;
57697;SDS011;43531;52.152;6.366;2023-01-19T02:45:26;17.58;;;14.13;;
57697;SDS011;43531;52.152;6.366;2023-01-19T02:45:58;16.85;;;13.57;;
57697;SDS011;43531;52.152;6.366;2023-01-19T02:46:29;16.85;;;10.95;;
57697;SDS011;43531;52.152;6.366;2023-01-19T02:47:01;18.98;;;14.52;;
57697;SDS011;43531;52.152;6.366;2023-01-19T02:47:42;22.77;;;14.00;;
57697;SDS011;43531;52.152;6.366;2023-01-19T02:48:17;18.17;;;13.98;;
57697;SDS011;43531;52.152;6.366;2023-01-19T02:48:49;14.82;;;12.38;;
57697;SDS011;43531;52.152;6.366;2023-01-19T02:49:21;17.48;;;14.32;;
57697;SDS011;43531;52.152;6.366;2023-01-19T02:49:55;16.77;;;14.25;;
57697;SDS011;43531;52.152;6.366;2023-01-19T02:51:15;17.55;;;14.13;;
57697;SDS011;43531;52.152;6.366;2023-01-19T02:51:48;14.65;;;13.15;;
57697;SDS011;43531;52.152;6.366;2023-01-19T02:52:20;20.23;;;15.10;;
57697;SDS011;43531;52.152;6.366;2023-01-19T02:52:53;19.13;;;14.15;;
57697;SDS011;43531;52.152;6.366;2023-01-19T02:55:30;15.93;;;13.30;;
57697;SDS011;43531;52.152;6.366;2023-01-19T02:57:11;22.30;;;13.30;;
57697;SDS011;43531;52.152;6.366;2023-01-19T02:58:04;19.40;;;13.82;;
57697;SDS011;43531;52.152;6.366;2023-01-19T02:58:49;17.52;;;14.00;;
57697;SDS011;43531;52.152;6.366;2023-01-19T03:00:53;17.83;;;13.07;;
57697;SDS011;43531;52.152;6.366;2023-01-19T03:01:07;17.00;;;13.15;;
57697;SDS011;43531;52.152;6.366;2023-01-19T03:01:59;17.80;;;14.07;;
57697;SDS011;43531;52.152;6.366;2023-01-19T03:02:46;19.35;;;13.45;;
57697;SDS011;43531;52.152;6.366;2023-01-19T03:04:58;17.58;;;13.45;;
57697;SDS011;43531;52.152;6.366;2023-01-19T03:06:34;15.30;;;12.48;;
57697;SDS011;43531;52.152;6.366;2023-01-19T03:07:12;16.95;;;12.82;;
57697;SDS011;43531;52.152;6.366;2023-01-19T03:11:02;16.23;;;12.75;;
57697;SDS011;43531;52.152;6.366;2023-01-19T03:11:37;15.50;;;12.45;;
57697;SDS011;43531;52.152;6.366;2023-01-19T03:12:51;14.88;;;12.43;;
57697;SDS011;43531;52.152;6.366;2023-01-19T03:14:21;13.57;;;11.35;;
57697;SDS011;43531;52.152;6.366;2023-01-19T03:14:56;13.00;;;11.52;;
57697;SDS011;43531;52.152;6.366;2023-01-19T03:15:43;14.23;;;11.48;;
57697;SDS011;43531;52.152;6.366;2023-01-19T03:16:58;12.60;;;10.32;;
57697;SDS011;43531;52.152;6.366;2023-01-19T03:17:31;13.38;;;10.85;;
57697;SDS011;43531;52.152;6.366;2023-01-19T03:18:05;14.23;;;11.18;;
57697;SDS011;43531;52.152;6.366;2023-01-19T03:18:39;15.07;;;11.10;;
57697;SDS011;43531;52.152;6.366;2023-01-19T03:19:17;14.32;;;12.35;;
57697;SDS011;43531;52.152;6.366;2023-01-19T03:19:52;17.35;;;10.32;;
57697;SDS011;43531;52.152;6.366;2023-01-19T03:20:24;12.57;;;10.70;;
57697;SDS011;43531;52.152;6.366;2023-01-19T03:20:59;13.95;;;10.65;;
57697;SDS011;43531;52.152;6.366;2023-01-19T03:21:35;11.23;;;10.07;;
57697;SDS011;43531;52.152;6.366;2023-01-19T03:22:12;11.60;;;9.82;;
57697;SDS011;43531;52.152;6.366;2023-01-19T03:22:54;12.25;;;10.38;;
57697;SDS011;43531;52.152;6.366;2023-01-19T03:23:31;11.27;;;9.95;;
57697;SDS011;43531;52.152;6.366;2023-01-19T03:24:05;16.05;;;11.88;;
57697;SDS011;43531;52.152;6.366;2023-01-19T03:24:38;12.60;;;11.30;;
57697;SDS011;43531;52.152;6.366;2023-01-19T03:25:12;13.05;;;11.00;;
57697;SDS011;43531;52.152;6.366;2023-01-19T03:25:45;13.38;;;11.35;;
57697;SDS011;43531;52.152;6.366;2023-01-19T03:26:20;11.73;;;10.18;;
57697;SDS011;43531;52.152;6.366;2023-01-19T03:26:58;12.32;;;11.00;;
57697;SDS011;43531;52.152;6.366;2023-01-19T03:27:32;13.65;;;10.32;;
57697;SDS011;43531;52.152;6.366;2023-01-19T03:28:11;10.35;;;9.25;;
57697;SDS011;43531;52.152;6.366;2023-01-19T03:28:44;11.27;;;9.77;;
57697;SDS011;43531;52.152;6.366;2023-01-19T03:29:16;12.57;;;9.63;;
57697;SDS011;43531;52.152;6.366;2023-01-19T03:29:50;11.43;;;10.23;;
57697;SDS011;43531;52.152;6.366;2023-01-19T03:30:25;12.68;;;10.85;;
57697;SDS011;43531;52.152;6.366;2023-01-19T03:31:00;11.77;;;10.30;;
57697;SDS011;43531;52.152;6.366;2023-01-19T03:31:36;10.50;;;9.35;;
57697;SDS011;43531;52.152;6.366;2023-01-19T03:32:09;14.43;;;10.43;;
57697;SDS011;43531;52.152;6.366;2023-01-19T03:32:48;11.57;;;9.43;;
57697;SDS011;43531;52.152;6.366;2023-01-19T03:33:23;15.48;;;10.73;;
57697;SDS011;43531;52.152;6.366;2023-01-19T03:34:07;11.50;;;10.00;;
57697;SDS011;43531;52.152;6.366;2023-01-19T03:34:39;12.45;;;10.70;;
57697;SDS011;43531;52.152;6.366;2023-01-19T03:35:13;11.20;;;9.63;;
57697;SDS011;43531;52.152;6.366;2023-01-19T03:35:49;12.48;;;10.93;;
57697;SDS011;43531;52.152;6.366;2023-01-19T03:36:24;11.20;;;9.95;;
57697;SDS011;43531;52.152;6.366;2023-01-19T03:37:00;11.05;;;9.85;;
57697;SDS011;43531;52.152;6.366;2023-01-19T03:37:33;13.10;;;10.75;;
57697;SDS011;43531;52.152;6.366;2023-01-19T03:38:10;11.00;;;9.60;;
57697;SDS011;43531;52.152;6.366;2023-01-19T03:38:45;11.70;;;10.43;;